Airfield :
LOGIN :

Register | Disclaimer

   EN    FR    IT 

 










Legend :    VFR   Marginal VFR   IFR   Intensive IFR   Very Intensive IFR
Visi :
Ceiling :
>= 8 km
>= 3000ft
5 to 8 km
1000 to 3000 ft
1500m to 5 km
500 to 1000 ft
800 to 1500m
200 to 500 ft
< 800m
< 200 ft
Symbols :   Thunderstorms  Fog  Heavy snow  Heavy precipitations  Wind > 20 kt
SIGMETs :     Misc.  Thunderstorms  Icing  Turbulence  Mountain Waves  Volcanic Ashes






- Airport Elevation : 37 ft
- IATA code : OLB


LIEO - Olbia Costa Smeralda

CURRENT METAR :
  • 312020Z VRB02KT CAVOK 16/13 Q1016

EXPIRED METARs :
  • 311950Z VRB01KT CAVOK 17/13 Q1015
  • 311920Z 08002KT CAVOK 19/13 Q1015
  • 311850Z 07003KT CAVOK 20/13 Q1015
  • 311820Z 08004KT CAVOK 21/13 Q1015
  • 311750Z 08004KT CAVOK 22/10 Q1015

TAF TAF LIEO
Valid from the 31 at 18:00 until the 01 at 18:00 UTC


311700Z 3118/0118 05010KT CAVOK
BECMG 3118/3120 24005KT
BECMG 0107/0109 05012KT
BECMG 0116/0118 VRB05KT



MET'MAP, your aeronautical weather chart ! - Copyright ORBIFLY December 2007 - Disclaimer

ORBIFLY MET'MAP TEAM :

Programming & Development : Alexandra Zaïnal
Concept & original design : Baudouin d'Aumeries
Assistance for programming : Marc-Olivier Méhu
Technical & hardware support : Manuel Goepfert

Contact : metmap@orbifly.com




SOURCES & CREDITS :

   NOAA